sensor_id;sensor_type;location;lat;lon;timestamp;P1;durP1;ratioP1;P2;durP2;ratioP2
3733;SDS011;1882;52.256;8.874;2024-01-30T00:00:31;18.20;;;12.60;;
3733;SDS011;1882;52.256;8.874;2024-01-30T00:02:58;18.77;;;11.50;;
3733;SDS011;1882;52.256;8.874;2024-01-30T00:05:24;20.77;;;12.43;;
3733;SDS011;1882;52.256;8.874;2024-01-30T00:07:51;19.73;;;13.03;;
3733;SDS011;1882;52.256;8.874;2024-01-30T00:10:19;16.73;;;11.50;;
3733;SDS011;1882;52.256;8.874;2024-01-30T00:12:47;17.67;;;12.57;;
3733;SDS011;1882;52.256;8.874;2024-01-30T00:15:14;17.57;;;12.63;;
3733;SDS011;1882;52.256;8.874;2024-01-30T00:17:41;18.87;;;12.50;;
3733;SDS011;1882;52.256;8.874;2024-01-30T00:20:08;18.23;;;12.70;;
3733;SDS011;1882;52.256;8.874;2024-01-30T00:22:36;20.70;;;12.93;;
3733;SDS011;1882;52.256;8.874;2024-01-30T00:25:03;14.97;;;11.57;;
3733;SDS011;1882;52.256;8.874;2024-01-30T00:27:30;18.40;;;12.80;;
3733;SDS011;1882;52.256;8.874;2024-01-30T00:29:57;17.50;;;12.43;;
3733;SDS011;1882;52.256;8.874;2024-01-30T00:32:24;15.37;;;11.80;;
3733;SDS011;1882;52.256;8.874;2024-01-30T00:34:51;18.30;;;12.67;;
3733;SDS011;1882;52.256;8.874;2024-01-30T00:37:18;17.00;;;11.47;;
3733;SDS011;1882;52.256;8.874;2024-01-30T00:39:45;18.27;;;11.70;;
3733;SDS011;1882;52.256;8.874;2024-01-30T00:42:12;17.73;;;12.90;;
3733;SDS011;1882;52.256;8.874;2024-01-30T00:44:39;15.63;;;11.97;;
3733;SDS011;1882;52.256;8.874;2024-01-30T00:47:06;22.83;;;13.23;;
3733;SDS011;1882;52.256;8.874;2024-01-30T00:49:33;15.70;;;11.70;;
3733;SDS011;1882;52.256;8.874;2024-01-30T00:52:00;18.10;;;12.70;;
3733;SDS011;1882;52.256;8.874;2024-01-30T00:54:27;19.30;;;12.30;;
3733;SDS011;1882;52.256;8.874;2024-01-30T00:56:54;19.83;;;12.90;;
3733;SDS011;1882;52.256;8.874;2024-01-30T00:59:21;16.50;;;11.67;;
3733;SDS011;1882;52.256;8.874;2024-01-30T01:01:48;15.30;;;11.03;;
3733;SDS011;1882;52.256;8.874;2024-01-30T01:04:15;15.33;;;11.70;;
3733;SDS011;1882;52.256;8.874;2024-01-30T01:06:43;18.20;;;12.93;;
3733;SDS011;1882;52.256;8.874;2024-01-30T01:09:11;19.70;;;12.00;;
3733;SDS011;1882;52.256;8.874;2024-01-30T01:11:38;20.10;;;13.00;;
3733;SDS011;1882;52.256;8.874;2024-01-30T01:14:06;16.63;;;11.20;;
3733;SDS011;1882;52.256;8.874;2024-01-30T01:16:33;18.90;;;12.73;;
3733;SDS011;1882;52.256;8.874;2024-01-30T01:19:00;14.90;;;11.57;;
3733;SDS011;1882;52.256;8.874;2024-01-30T01:21:28;19.30;;;12.63;;
3733;SDS011;1882;52.256;8.874;2024-01-30T01:23:55;18.70;;;12.77;;
3733;SDS011;1882;52.256;8.874;2024-01-30T01:26:22;20.27;;;12.80;;
3733;SDS011;1882;52.256;8.874;2024-01-30T01:28:49;20.50;;;12.87;;
3733;SDS011;1882;52.256;8.874;2024-01-30T01:31:17;23.33;;;13.87;;
3733;SDS011;1882;52.256;8.874;2024-01-30T01:33:44;18.60;;;12.23;;
3733;SDS011;1882;52.256;8.874;2024-01-30T01:36:13;16.40;;;12.10;;
3733;SDS011;1882;52.256;8.874;2024-01-30T01:38:40;18.13;;;13.00;;
3733;SDS011;1882;52.256;8.874;2024-01-30T01:41:07;17.03;;;11.60;;
3733;SDS011;1882;52.256;8.874;2024-01-30T01:43:34;17.30;;;12.00;;
3733;SDS011;1882;52.256;8.874;2024-01-30T01:46:01;18.53;;;12.67;;
3733;SDS011;1882;52.256;8.874;2024-01-30T01:48:28;17.73;;;13.03;;
3733;SDS011;1882;52.256;8.874;2024-01-30T01:50:56;17.93;;;11.97;;
3733;SDS011;1882;52.256;8.874;2024-01-30T01:53:24;19.27;;;13.77;;
3733;SDS011;1882;52.256;8.874;2024-01-30T01:55:51;18.87;;;13.17;;
3733;SDS011;1882;52.256;8.874;2024-01-30T01:58:19;21.60;;;13.20;;
3733;SDS011;1882;52.256;8.874;2024-01-30T02:00:47;19.57;;;13.00;;
3733;SDS011;1882;52.256;8.874;2024-01-30T02:03:14;19.37;;;12.97;;
3733;SDS011;1882;52.256;8.874;2024-01-30T02:05:48;19.47;;;13.50;;
3733;SDS011;1882;52.256;8.874;2024-01-30T02:08:16;17.03;;;12.97;;
3733;SDS011;1882;52.256;8.874;2024-01-30T02:10:43;24.13;;;14.50;;
3733;SDS011;1882;52.256;8.874;2024-01-30T02:13:10;25.87;;;14.53;;
3733;SDS011;1882;52.256;8.874;2024-01-30T02:15:37;19.13;;;13.50;;
3733;SDS011;1882;52.256;8.874;2024-01-30T02:18:04;19.60;;;13.50;;
3733;SDS011;1882;52.256;8.874;2024-01-30T02:20:31;20.00;;;13.83;;
3733;SDS011;1882;52.256;8.874;2024-01-30T02:23:01;19.90;;;13.20;;
3733;SDS011;1882;52.256;8.874;2024-01-30T02:25:38;16.90;;;12.30;;
3733;SDS011;1882;52.256;8.874;2024-01-30T02:28:10;21.77;;;13.10;;
3733;SDS011;1882;52.256;8.874;2024-01-30T02:30:38;20.03;;;13.63;;
3733;SDS011;1882;52.256;8.874;2024-01-30T02:33:06;17.80;;;12.33;;
3733;SDS011;1882;52.256;8.874;2024-01-30T02:35:33;19.93;;;13.20;;
3733;SDS011;1882;52.256;8.874;2024-01-30T02:38:00;18.53;;;13.67;;
3733;SDS011;1882;52.256;8.874;2024-01-30T02:40:27;20.63;;;13.20;;
3733;SDS011;1882;52.256;8.874;2024-01-30T02:42:54;20.67;;;13.10;;
3733;SDS011;1882;52.256;8.874;2024-01-30T02:45:21;16.93;;;12.23;;
3733;SDS011;1882;52.256;8.874;2024-01-30T02:47:48;16.53;;;11.53;;
3733;SDS011;1882;52.256;8.874;2024-01-30T02:50:15;19.63;;;12.80;;
3733;SDS011;1882;52.256;8.874;2024-01-30T02:52:43;19.23;;;12.43;;
3733;SDS011;1882;52.256;8.874;2024-01-30T02:55:12;18.70;;;13.00;;
3733;SDS011;1882;52.256;8.874;2024-01-30T02:57:39;18.80;;;12.30;;
3733;SDS011;1882;52.256;8.874;2024-01-30T03:00:06;22.67;;;12.97;;
3733;SDS011;1882;52.256;8.874;2024-01-30T03:02:36;16.80;;;12.17;;
3733;SDS011;1882;52.256;8.874;2024-01-30T03:05:03;17.10;;;12.90;;
3733;SDS011;1882;52.256;8.874;2024-01-30T03:07:31;17.27;;;11.70;;
3733;SDS011;1882;52.256;8.874;2024-01-30T03:09:59;20.43;;;12.90;;
3733;SDS011;1882;52.256;8.874;2024-01-30T03:12:27;19.30;;;13.10;;
3733;SDS011;1882;52.256;8.874;2024-01-30T03:14:54;18.73;;;12.53;;
3733;SDS011;1882;52.256;8.874;2024-01-30T03:17:21;20.70;;;13.47;;
3733;SDS011;1882;52.256;8.874;2024-01-30T03:19:48;20.30;;;13.17;;
3733;SDS011;1882;52.256;8.874;2024-01-30T03:22:15;15.33;;;11.93;;
3733;SDS011;1882;52.256;8.874;2024-01-30T03:24:42;18.23;;;12.13;;
3733;SDS011;1882;52.256;8.874;2024-01-30T03:27:09;20.67;;;12.73;;
3733;SDS011;1882;52.256;8.874;2024-01-30T03:29:37;21.00;;;13.37;;
3733;SDS011;1882;52.256;8.874;2024-01-30T03:32:04;18.83;;;12.40;;
3733;SDS011;1882;52.256;8.874;2024-01-30T03:34:31;16.53;;;11.27;;
3733;SDS011;1882;52.256;8.874;2024-01-30T03:36:58;17.93;;;12.37;;
3733;SDS011;1882;52.256;8.874;2024-01-30T03:39:26;20.27;;;12.97;;
3733;SDS011;1882;52.256;8.874;2024-01-30T03:41:53;17.80;;;12.77;;
3733;SDS011;1882;52.256;8.874;2024-01-30T03:44:19;17.63;;;11.53;;
3733;SDS011;1882;52.256;8.874;2024-01-30T03:46:46;19.30;;;12.60;;
3733;SDS011;1882;52.256;8.874;2024-01-30T03:49:15;17.90;;;12.17;;
3733;SDS011;1882;52.256;8.874;2024-01-30T03:51:42;20.23;;;13.50;;
3733;SDS011;1882;52.256;8.874;2024-01-30T03:54:09;18.10;;;12.77;;
3733;SDS011;1882;52.256;8.874;2024-01-30T03:56:36;15.50;;;11.93;;
3733;SDS011;1882;52.256;8.874;2024-01-30T03:59:03;17.03;;;11.93;;
3733;SDS011;1882;52.256;8.874;2024-01-30T04:01:30;16.53;;;11.37;;
3733;SDS011;1882;52.256;8.874;2024-01-30T04:03:57;18.73;;;12.73;;
3733;SDS011;1882;52.256;8.874;2024-01-30T04:06:24;18.63;;;12.03;;
3733;SDS011;1882;52.256;8.874;2024-01-30T04:08:52;18.20;;;11.73;;
3733;SDS011;1882;52.256;8.874;2024-01-30T04:11:19;17.13;;;11.97;;
3733;SDS011;1882;52.256;8.874;2024-01-30T04:13:46;19.70;;;12.27;;
3733;SDS011;1882;52.256;8.874;2024-01-30T04:16:21;19.57;;;12.87;;
3733;SDS011;1882;52.256;8.874;2024-01-30T04:18:51;23.37;;;12.77;;
3733;SDS011;1882;52.256;8.874;2024-01-30T04:21:20;19.47;;;13.20;;
3733;SDS011;1882;52.256;8.874;2024-01-30T04:23:47;18.97;;;13.00;;
3733;SDS011;1882;52.256;8.874;2024-01-30T04:26:15;20.70;;;13.60;;
3733;SDS011;1882;52.256;8.874;2024-01-30T04:28:42;19.67;;;13.23;;
3733;SDS011;1882;52.256;8.874;2024-01-30T04:31:10;18.53;;;13.27;;
3733;SDS011;1882;52.256;8.874;2024-01-30T04:33:37;19.47;;;13.03;;
3733;SDS011;1882;52.256;8.874;2024-01-30T04:36:04;19.73;;;12.40;;
3733;SDS011;1882;52.256;8.874;2024-01-30T04:38:35;19.90;;;13.07;;
3733;SDS011;1882;52.256;8.874;2024-01-30T04:41:02;17.93;;;12.47;;
3733;SDS011;1882;52.256;8.874;2024-01-30T04:43:29;17.60;;;11.80;;
3733;SDS011;1882;52.256;8.874;2024-01-30T04:45:56;16.77;;;12.80;;
3733;SDS011;1882;52.256;8.874;2024-01-30T04:48:23;18.10;;;12.13;;
3733;SDS011;1882;52.256;8.874;2024-01-30T04:50:50;17.20;;;12.20;;
3733;SDS011;1882;52.256;8.874;2024-01-30T04:53:17;18.60;;;12.60;;
3733;SDS011;1882;52.256;8.874;2024-01-30T04:55:45;21.53;;;13.13;;
3733;SDS011;1882;52.256;8.874;2024-01-30T04:58:12;22.07;;;11.30;;
3733;SDS011;1882;52.256;8.874;2024-01-30T05:00:39;19.90;;;12.97;;
3733;SDS011;1882;52.256;8.874;2024-01-30T05:03:06;19.47;;;12.30;;
3733;SDS011;1882;52.256;8.874;2024-01-30T05:05:32;23.33;;;11.80;;
3733;SDS011;1882;52.256;8.874;2024-01-30T05:07:59;20.57;;;12.70;;
3733;SDS011;1882;52.256;8.874;2024-01-30T05:10:26;16.27;;;11.90;;
3733;SDS011;1882;52.256;8.874;2024-01-30T05:12:55;17.50;;;11.80;;
3733;SDS011;1882;52.256;8.874;2024-01-30T05:15:22;19.67;;;12.20;;
3733;SDS011;1882;52.256;8.874;2024-01-30T05:17:49;18.30;;;12.43;;
3733;SDS011;1882;52.256;8.874;2024-01-30T05:20:16;19.77;;;12.30;;
3733;SDS011;1882;52.256;8.874;2024-01-30T05:22:43;19.43;;;13.00;;
3733;SDS011;1882;52.256;8.874;2024-01-30T05:25:12;20.43;;;12.70;;
3733;SDS011;1882;52.256;8.874;2024-01-30T05:27:39;19.57;;;12.70;;
3733;SDS011;1882;52.256;8.874;2024-01-30T05:30:06;18.60;;;12.43;;
3733;SDS011;1882;52.256;8.874;2024-01-30T05:32:34;17.00;;;12.40;;
3733;SDS011;1882;52.256;8.874;2024-01-30T05:35:01;20.63;;;13.40;;
3733;SDS011;1882;52.256;8.874;2024-01-30T05:37:28;18.77;;;12.37;;
3733;SDS011;1882;52.256;8.874;2024-01-30T05:39:55;25.30;;;13.47;;
3733;SDS011;1882;52.256;8.874;2024-01-30T05:42:23;21.80;;;14.37;;
3733;SDS011;1882;52.256;8.874;2024-01-30T05:44:49;19.93;;;13.07;;
3733;SDS011;1882;52.256;8.874;2024-01-30T05:47:16;17.90;;;12.10;;
3733;SDS011;1882;52.256;8.874;2024-01-30T05:49:43;18.30;;;11.57;;
3733;SDS011;1882;52.256;8.874;2024-01-30T05:52:10;20.13;;;12.90;;
3733;SDS011;1882;52.256;8.874;2024-01-30T05:54:37;17.30;;;10.83;;
3733;SDS011;1882;52.256;8.874;2024-01-30T05:57:04;15.83;;;11.30;;
3733;SDS011;1882;52.256;8.874;2024-01-30T05:59:31;16.20;;;11.53;;
3733;SDS011;1882;52.256;8.874;2024-01-30T06:01:58;17.40;;;11.87;;
3733;SDS011;1882;52.256;8.874;2024-01-30T06:04:25;17.70;;;12.37;;
3733;SDS011;1882;52.256;8.874;2024-01-30T06:06:53;16.70;;;11.53;;
3733;SDS011;1882;52.256;8.874;2024-01-30T06:09:20;18.50;;;11.43;;
3733;SDS011;1882;52.256;8.874;2024-01-30T06:11:46;15.23;;;11.17;;
3733;SDS011;1882;52.256;8.874;2024-01-30T06:14:13;16.30;;;11.30;;
3733;SDS011;1882;52.256;8.874;2024-01-30T06:16:40;15.80;;;11.43;;
3733;SDS011;1882;52.256;8.874;2024-01-30T06:19:07;16.67;;;11.73;;
3733;SDS011;1882;52.256;8.874;2024-01-30T06:21:34;20.63;;;12.67;;
3733;SDS011;1882;52.256;8.874;2024-01-30T06:24:03;21.70;;;11.60;;
3733;SDS011;1882;52.256;8.874;2024-01-30T06:26:30;18.30;;;12.40;;
3733;SDS011;1882;52.256;8.874;2024-01-30T06:28:57;16.60;;;11.40;;
3733;SDS011;1882;52.256;8.874;2024-01-30T06:31:24;19.53;;;11.90;;
3733;SDS011;1882;52.256;8.874;2024-01-30T06:33:51;16.70;;;12.10;;
3733;SDS011;1882;52.256;8.874;2024-01-30T06:36:18;18.47;;;11.60;;
3733;SDS011;1882;52.256;8.874;2024-01-30T06:38:45;16.10;;;12.03;;
3733;SDS011;1882;52.256;8.874;2024-01-30T06:41:11;18.10;;;11.30;;
3733;SDS011;1882;52.256;8.874;2024-01-30T06:43:38;17.10;;;11.40;;
3733;SDS011;1882;52.256;8.874;2024-01-30T06:46:05;19.00;;;13.27;;
3733;SDS011;1882;52.256;8.874;2024-01-30T06:48:32;15.87;;;11.37;;
3733;SDS011;1882;52.256;8.874;2024-01-30T06:50:59;19.00;;;12.80;;
3733;SDS011;1882;52.256;8.874;2024-01-30T06:53:26;16.67;;;11.77;;
3733;SDS011;1882;52.256;8.874;2024-01-30T06:55:53;19.10;;;12.70;;
3733;SDS011;1882;52.256;8.874;2024-01-30T06:58:20;19.30;;;12.77;;
3733;SDS011;1882;52.256;8.874;2024-01-30T07:00:47;21.33;;;12.60;;
3733;SDS011;1882;52.256;8.874;2024-01-30T07:03:14;16.00;;;11.80;;
3733;SDS011;1882;52.256;8.874;2024-01-30T07:05:41;18.90;;;12.13;;
3733;SDS011;1882;52.256;8.874;2024-01-30T07:08:07;17.00;;;12.27;;
3733;SDS011;1882;52.256;8.874;2024-01-30T07:10:34;19.10;;;12.63;;
3733;SDS011;1882;52.256;8.874;2024-01-30T07:13:01;19.97;;;12.17;;
3733;SDS011;1882;52.256;8.874;2024-01-30T07:15:30;17.73;;;12.40;;
3733;SDS011;1882;52.256;8.874;2024-01-30T07:17:57;17.07;;;11.20;;
3733;SDS011;1882;52.256;8.874;2024-01-30T07:20:24;18.07;;;12.73;;
3733;SDS011;1882;52.256;8.874;2024-01-30T07:22:51;17.00;;;11.27;;
3733;SDS011;1882;52.256;8.874;2024-01-30T07:25:18;20.37;;;12.03;;
3733;SDS011;1882;52.256;8.874;2024-01-30T07:27:45;19.00;;;11.50;;
3733;SDS011;1882;52.256;8.874;2024-01-30T07:30:12;16.40;;;12.00;;
3733;SDS011;1882;52.256;8.874;2024-01-30T07:32:39;17.87;;;12.13;;
3733;SDS011;1882;52.256;8.874;2024-01-30T07:35:06;15.63;;;11.77;;
3733;SDS011;1882;52.256;8.874;2024-01-30T07:37:35;17.10;;;11.50;;
3733;SDS011;1882;52.256;8.874;2024-01-30T07:40:02;16.37;;;12.10;;
3733;SDS011;1882;52.256;8.874;2024-01-30T07:42:30;17.80;;;12.60;;
3733;SDS011;1882;52.256;8.874;2024-01-30T07:44:57;18.63;;;12.37;;
3733;SDS011;1882;52.256;8.874;2024-01-30T07:47:24;14.33;;;11.10;;
3733;SDS011;1882;52.256;8.874;2024-01-30T07:49:51;17.80;;;13.00;;
3733;SDS011;1882;52.256;8.874;2024-01-30T07:52:20;19.67;;;11.90;;
3733;SDS011;1882;52.256;8.874;2024-01-30T07:54:48;17.27;;;12.17;;
3733;SDS011;1882;52.256;8.874;2024-01-30T07:57:15;17.20;;;11.77;;
3733;SDS011;1882;52.256;8.874;2024-01-30T07:59:43;16.93;;;11.30;;
3733;SDS011;1882;52.256;8.874;2024-01-30T08:02:14;15.77;;;11.00;;
3733;SDS011;1882;52.256;8.874;2024-01-30T08:04:42;20.10;;;12.10;;
3733;SDS011;1882;52.256;8.874;2024-01-30T08:07:09;14.90;;;10.63;;
3733;SDS011;1882;52.256;8.874;2024-01-30T08:09:36;17.27;;;11.30;;
3733;SDS011;1882;52.256;8.874;2024-01-30T08:12:03;15.87;;;10.83;;
3733;SDS011;1882;52.256;8.874;2024-01-30T08:14:30;14.60;;;10.53;;
3733;SDS011;1882;52.256;8.874;2024-01-30T08:16:57;13.97;;;11.10;;
3733;SDS011;1882;52.256;8.874;2024-01-30T08:19:24;15.50;;;10.37;;
3733;SDS011;1882;52.256;8.874;2024-01-30T08:21:51;16.80;;;11.47;;
3733;SDS011;1882;52.256;8.874;2024-01-30T08:24:18;17.70;;;11.07;;
3733;SDS011;1882;52.256;8.874;2024-01-30T08:26:47;17.13;;;11.80;;
3733;SDS011;1882;52.256;8.874;2024-01-30T08:29:15;15.63;;;11.23;;
3733;SDS011;1882;52.256;8.874;2024-01-30T08:31:42;18.17;;;11.83;;
3733;SDS011;1882;52.256;8.874;2024-01-30T08:34:10;15.23;;;10.80;;
3733;SDS011;1882;52.256;8.874;2024-01-30T08:36:37;13.93;;;10.60;;
3733;SDS011;1882;52.256;8.874;2024-01-30T08:39:04;15.27;;;11.20;;
3733;SDS011;1882;52.256;8.874;2024-01-30T08:41:32;18.03;;;11.13;;
3733;SDS011;1882;52.256;8.874;2024-01-30T08:43:59;16.90;;;10.77;;
3733;SDS011;1882;52.256;8.874;2024-01-30T08:46:25;13.70;;;10.73;;
3733;SDS011;1882;52.256;8.874;2024-01-30T08:48:52;14.30;;;10.20;;
3733;SDS011;1882;52.256;8.874;2024-01-30T08:51:20;17.00;;;10.70;;
3733;SDS011;1882;52.256;8.874;2024-01-30T08:53:46;18.13;;;10.73;;
3733;SDS011;1882;52.256;8.874;2024-01-30T08:56:13;16.07;;;10.17;;
3733;SDS011;1882;52.256;8.874;2024-01-30T08:58:42;13.70;;;10.37;;
3733;SDS011;1882;52.256;8.874;2024-01-30T09:01:09;16.97;;;12.03;;
3733;SDS011;1882;52.256;8.874;2024-01-30T09:03:36;15.50;;;11.10;;
3733;SDS011;1882;52.256;8.874;2024-01-30T09:06:10;14.50;;;10.23;;
3733;SDS011;1882;52.256;8.874;2024-01-30T09:08:38;13.13;;;10.10;;
3733;SDS011;1882;52.256;8.874;2024-01-30T09:11:12;13.30;;;8.80;;
3733;SDS011;1882;52.256;8.874;2024-01-30T09:13:39;13.50;;;9.00;;
3733;SDS011;1882;52.256;8.874;2024-01-30T09:16:07;13.73;;;9.10;;
3733;SDS011;1882;52.256;8.874;2024-01-30T09:18:34;14.13;;;9.27;;
3733;SDS011;1882;52.256;8.874;2024-01-30T09:21:01;12.83;;;8.93;;
3733;SDS011;1882;52.256;8.874;2024-01-30T09:23:28;11.70;;;9.83;;
3733;SDS011;1882;52.256;8.874;2024-01-30T09:25:55;14.03;;;10.37;;
3733;SDS011;1882;52.256;8.874;2024-01-30T09:28:22;14.10;;;10.00;;
3733;SDS011;1882;52.256;8.874;2024-01-30T09:30:52;12.90;;;9.00;;
3733;SDS011;1882;52.256;8.874;2024-01-30T09:33:19;13.13;;;9.80;;
3733;SDS011;1882;52.256;8.874;2024-01-30T09:35:46;15.93;;;10.10;;
3733;SDS011;1882;52.256;8.874;2024-01-30T09:38:13;12.27;;;9.30;;
3733;SDS011;1882;52.256;8.874;2024-01-30T09:40:40;11.50;;;8.80;;
3733;SDS011;1882;52.256;8.874;2024-01-30T09:43:08;12.40;;;9.33;;
3733;SDS011;1882;52.256;8.874;2024-01-30T09:45:43;17.00;;;9.23;;
3733;SDS011;1882;52.256;8.874;2024-01-30T09:48:13;12.57;;;8.97;;
3733;SDS011;1882;52.256;8.874;2024-01-30T09:50:40;13.17;;;9.10;;
3733;SDS011;1882;52.256;8.874;2024-01-30T09:53:08;13.30;;;9.27;;
3733;SDS011;1882;52.256;8.874;2024-01-30T09:55:35;14.50;;;8.87;;
3733;SDS011;1882;52.256;8.874;2024-01-30T09:58:03;12.83;;;9.37;;
3733;SDS011;1882;52.256;8.874;2024-01-30T10:00:30;13.17;;;9.50;;
3733;SDS011;1882;52.256;8.874;2024-01-30T10:02:57;16.20;;;9.60;;
3733;SDS011;1882;52.256;8.874;2024-01-30T10:05:26;12.30;;;8.97;;
3733;SDS011;1882;52.256;8.874;2024-01-30T10:07:56;16.87;;;9.87;;
3733;SDS011;1882;52.256;8.874;2024-01-30T10:10:23;14.47;;;9.17;;
3733;SDS011;1882;52.256;8.874;2024-01-30T10:12:51;13.17;;;9.60;;
3733;SDS011;1882;52.256;8.874;2024-01-30T10:15:18;16.80;;;9.20;;
3733;SDS011;1882;52.256;8.874;2024-01-30T10:17:45;13.80;;;8.90;;
3733;SDS011;1882;52.256;8.874;2024-01-30T10:20:12;11.63;;;9.33;;
3733;SDS011;1882;52.256;8.874;2024-01-30T10:22:40;13.20;;;9.23;;
3733;SDS011;1882;52.256;8.874;2024-01-30T10:25:10;12.60;;;9.47;;
3733;SDS011;1882;52.256;8.874;2024-01-30T10:27:39;14.40;;;9.57;;
3733;SDS011;1882;52.256;8.874;2024-01-30T10:30:07;11.70;;;8.83;;
3733;SDS011;1882;52.256;8.874;2024-01-30T10:32:34;12.10;;;9.13;;
3733;SDS011;1882;52.256;8.874;2024-01-30T10:35:02;12.13;;;8.43;;
3733;SDS011;1882;52.256;8.874;2024-01-30T10:37:29;15.07;;;10.10;;
3733;SDS011;1882;52.256;8.874;2024-01-30T10:40:01;10.63;;;8.67;;
3733;SDS011;1882;52.256;8.874;2024-01-30T10:42:32;11.10;;;8.70;;
3733;SDS011;1882;52.256;8.874;2024-01-30T10:45:06;13.87;;;8.50;;
3733;SDS011;1882;52.256;8.874;2024-01-30T10:47:40;12.77;;;8.90;;
3733;SDS011;1882;52.256;8.874;2024-01-30T10:50:10;15.00;;;8.80;;
3733;SDS011;1882;52.256;8.874;2024-01-30T10:52:37;14.67;;;8.40;;
3733;SDS011;1882;52.256;8.874;2024-01-30T10:55:08;15.00;;;8.90;;
3733;SDS011;1882;52.256;8.874;2024-01-30T10:57:35;12.67;;;9.40;;
3733;SDS011;1882;52.256;8.874;2024-01-30T11:00:13;12.30;;;8.87;;
3733;SDS011;1882;52.256;8.874;2024-01-30T11:02:43;13.00;;;8.77;;
3733;SDS011;1882;52.256;8.874;2024-01-30T11:05:13;12.27;;;8.73;;
3733;SDS011;1882;52.256;8.874;2024-01-30T11:07:42;13.30;;;8.60;;
3733;SDS011;1882;52.256;8.874;2024-01-30T11:10:09;12.40;;;8.33;;
3733;SDS011;1882;52.256;8.874;2024-01-30T11:12:41;13.30;;;9.03;;
3733;SDS011;1882;52.256;8.874;2024-01-30T11:15:12;11.63;;;8.80;;
3733;SDS011;1882;52.256;8.874;2024-01-30T11:20:21;11.90;;;8.17;;
3733;SDS011;1882;52.256;8.874;2024-01-30T11:22:50;12.47;;;8.13;;
3733;SDS011;1882;52.256;8.874;2024-01-30T11:25:19;11.00;;;8.30;;
3733;SDS011;1882;52.256;8.874;2024-01-30T11:27:49;12.50;;;9.00;;
3733;SDS011;1882;52.256;8.874;2024-01-30T11:32:58;17.17;;;8.23;;
3733;SDS011;1882;52.256;8.874;2024-01-30T11:35:36;12.13;;;8.20;;
3733;SDS011;1882;52.256;8.874;2024-01-30T11:38:13;10.10;;;7.97;;
3733;SDS011;1882;52.256;8.874;2024-01-30T11:40:40;10.93;;;8.00;;
3733;SDS011;1882;52.256;8.874;2024-01-30T11:43:08;15.67;;;8.57;;
3733;SDS011;1882;52.256;8.874;2024-01-30T11:45:36;12.30;;;8.27;;
3733;SDS011;1882;52.256;8.874;2024-01-30T11:48:03;10.20;;;8.20;;
3733;SDS011;1882;52.256;8.874;2024-01-30T11:50:32;10.77;;;8.83;;
3733;SDS011;1882;52.256;8.874;2024-01-30T11:53:00;11.50;;;8.30;;
3733;SDS011;1882;52.256;8.874;2024-01-30T11:55:31;17.23;;;7.93;;
3733;SDS011;1882;52.256;8.874;2024-01-30T11:58:01;11.47;;;8.40;;
3733;SDS011;1882;52.256;8.874;2024-01-30T12:00:29;13.43;;;7.40;;
3733;SDS011;1882;52.256;8.874;2024-01-30T12:03:00;13.17;;;8.80;;
3733;SDS011;1882;52.256;8.874;2024-01-30T12:05:28;11.43;;;7.50;;
3733;SDS011;1882;52.256;8.874;2024-01-30T12:07:56;9.40;;;7.50;;
3733;SDS011;1882;52.256;8.874;2024-01-30T12:10:26;10.30;;;7.50;;
3733;SDS011;1882;52.256;8.874;2024-01-30T12:12:54;8.10;;;6.23;;
3733;SDS011;1882;52.256;8.874;2024-01-30T12:15:21;8.23;;;6.80;;
3733;SDS011;1882;52.256;8.874;2024-01-30T12:17:49;9.43;;;6.43;;
3733;SDS011;1882;52.256;8.874;2024-01-30T12:20:19;8.20;;;6.97;;
3733;SDS011;1882;52.256;8.874;2024-01-30T12:22:49;9.57;;;7.13;;
3733;SDS011;1882;52.256;8.874;2024-01-30T12:25:18;11.73;;;7.30;;
3733;SDS011;1882;52.256;8.874;2024-01-30T12:27:48;13.73;;;7.50;;
3733;SDS011;1882;52.256;8.874;2024-01-30T12:30:17;10.37;;;7.03;;
3733;SDS011;1882;52.256;8.874;2024-01-30T12:32:46;14.67;;;7.47;;
3733;SDS011;1882;52.256;8.874;2024-01-30T12:35:18;12.30;;;7.50;;
3733;SDS011;1882;52.256;8.874;2024-01-30T12:37:46;10.47;;;6.97;;
3733;SDS011;1882;52.256;8.874;2024-01-30T12:40:14;10.23;;;7.00;;
3733;SDS011;1882;52.256;8.874;2024-01-30T12:42:42;9.67;;;6.83;;
3733;SDS011;1882;52.256;8.874;2024-01-30T12:45:13;9.00;;;6.97;;
3733;SDS011;1882;52.256;8.874;2024-01-30T12:47:41;12.13;;;7.20;;
3733;SDS011;1882;52.256;8.874;2024-01-30T12:50:08;11.00;;;7.30;;
3733;SDS011;1882;52.256;8.874;2024-01-30T12:52:36;10.90;;;8.60;;
3733;SDS011;1882;52.256;8.874;2024-01-30T12:55:03;10.70;;;7.47;;
3733;SDS011;1882;52.256;8.874;2024-01-30T12:57:31;10.50;;;7.40;;
3733;SDS011;1882;52.256;8.874;2024-01-30T12:59:58;10.87;;;7.27;;
3733;SDS011;1882;52.256;8.874;2024-01-30T13:02:25;11.77;;;7.30;;
3733;SDS011;1882;52.256;8.874;2024-01-30T13:04:53;10.47;;;7.53;;
3733;SDS011;1882;52.256;8.874;2024-01-30T13:07:21;11.10;;;7.67;;
3733;SDS011;1882;52.256;8.874;2024-01-30T13:09:48;10.43;;;7.17;;
3733;SDS011;1882;52.256;8.874;2024-01-30T13:12:15;12.00;;;7.50;;
3733;SDS011;1882;52.256;8.874;2024-01-30T13:14:41;17.73;;;8.83;;
3733;SDS011;1882;52.256;8.874;2024-01-30T13:17:09;13.87;;;7.80;;
3733;SDS011;1882;52.256;8.874;2024-01-30T13:19:36;15.50;;;8.30;;
3733;SDS011;1882;52.256;8.874;2024-01-30T13:22:03;12.80;;;7.87;;
3733;SDS011;1882;52.256;8.874;2024-01-30T13:24:30;13.37;;;7.80;;
3733;SDS011;1882;52.256;8.874;2024-01-30T13:26:57;19.20;;;8.90;;
3733;SDS011;1882;52.256;8.874;2024-01-30T13:29:24;13.03;;;7.83;;
3733;SDS011;1882;52.256;8.874;2024-01-30T13:31:51;14.20;;;9.10;;
3733;SDS011;1882;52.256;8.874;2024-01-30T13:34:18;18.07;;;8.87;;
3733;SDS011;1882;52.256;8.874;2024-01-30T13:36:45;14.43;;;9.50;;
3733;SDS011;1882;52.256;8.874;2024-01-30T13:39:12;18.57;;;9.37;;
3733;SDS011;1882;52.256;8.874;2024-01-30T13:41:39;14.10;;;8.83;;
3733;SDS011;1882;52.256;8.874;2024-01-30T13:44:08;17.17;;;9.40;;
3733;SDS011;1882;52.256;8.874;2024-01-30T13:46:35;14.00;;;8.27;;
3733;SDS011;1882;52.256;8.874;2024-01-30T13:49:02;11.97;;;8.60;;
3733;SDS011;1882;52.256;8.874;2024-01-30T13:51:29;12.37;;;8.20;;
3733;SDS011;1882;52.256;8.874;2024-01-30T13:53:56;14.70;;;9.37;;
3733;SDS011;1882;52.256;8.874;2024-01-30T13:56:23;15.63;;;8.83;;
3733;SDS011;1882;52.256;8.874;2024-01-30T13:58:52;15.17;;;9.60;;
3733;SDS011;1882;52.256;8.874;2024-01-30T14:01:19;15.80;;;8.70;;
3733;SDS011;1882;52.256;8.874;2024-01-30T14:03:46;17.40;;;8.93;;
3733;SDS011;1882;52.256;8.874;2024-01-30T14:06:13;16.63;;;9.90;;
3733;SDS011;1882;52.256;8.874;2024-01-30T14:08:40;16.63;;;10.00;;
3733;SDS011;1882;52.256;8.874;2024-01-30T14:11:13;13.97;;;9.10;;
3733;SDS011;1882;52.256;8.874;2024-01-30T14:13:40;15.77;;;9.40;;
3733;SDS011;1882;52.256;8.874;2024-01-30T14:16:07;12.13;;;9.17;;
3733;SDS011;1882;52.256;8.874;2024-01-30T14:18:34;15.80;;;8.83;;
3733;SDS011;1882;52.256;8.874;2024-01-30T14:21:01;13.07;;;9.10;;
3733;SDS011;1882;52.256;8.874;2024-01-30T14:23:28;14.97;;;9.67;;
3733;SDS011;1882;52.256;8.874;2024-01-30T14:25:55;15.97;;;10.23;;
3733;SDS011;1882;52.256;8.874;2024-01-30T14:28:22;17.93;;;11.10;;
3733;SDS011;1882;52.256;8.874;2024-01-30T14:30:49;15.17;;;9.40;;
3733;SDS011;1882;52.256;8.874;2024-01-30T14:33:16;16.00;;;10.50;;
3733;SDS011;1882;52.256;8.874;2024-01-30T14:35:43;16.30;;;10.40;;
3733;SDS011;1882;52.256;8.874;2024-01-30T14:38:10;16.77;;;10.27;;
3733;SDS011;1882;52.256;8.874;2024-01-30T14:40:38;24.03;;;11.30;;
3733;SDS011;1882;52.256;8.874;2024-01-30T14:43:05;14.83;;;9.47;;
3733;SDS011;1882;52.256;8.874;2024-01-30T14:45:32;11.37;;;9.10;;
3733;SDS011;1882;52.256;8.874;2024-01-30T14:47:59;15.60;;;10.30;;
3733;SDS011;1882;52.256;8.874;2024-01-30T14:50:26;19.53;;;10.70;;
3733;SDS011;1882;52.256;8.874;2024-01-30T14:52:54;14.30;;;10.60;;
3733;SDS011;1882;52.256;8.874;2024-01-30T14:55:21;15.97;;;10.53;;
3733;SDS011;1882;52.256;8.874;2024-01-30T14:57:48;18.83;;;12.37;;
3733;SDS011;1882;52.256;8.874;2024-01-30T15:00:16;16.93;;;10.53;;